Arock, OR

3:09 AM MDT on September 02, 2014 (GMT -0600)
RAWS GRASSY MOUNTAIN OR US | Change Station
CLOSE
Current Station
Personal Weather Station
Location: Jordan Valley, OR
Elevation: 4560 ft
Nearby Weather Stations

Elev 4560 ft 42.63 °N, 117.40 °W | Updated 45 minutes ago

Clear
Clear
58 °F
Feels Like 58 °F
N
10
Wind Variable Wind from ESE
Gusts 12.0 mph

Today
High -- | Low -- °F
--% Chance of Precip.
Yesterday
High -- | Low -- °F
Precip. -- in
7:15 AM 8:22 PM
Waxing Crescent, 49% visible
Pressure 29.97 in
Visibility 10.0 miles
Clouds Clear
Dew Point 31 °F
Humidity 36%
Rainfall 0.00 in
Snow Depth Not available.
UV 0 out of 12
Pollen 7.30 out of 12
Air Quality Not available.
Flu Activity Not available.
METAR KEUL 020855Z AUTO 10005KT 10SM CLR 11/03 A2997 RMK AO1 57003

More Conditions Fewer Conditions

Pressure 29.97 in
Visibility 10.0 miles
Clouds Clear
Dew Point 31 °F
Humidity 36%
Rainfall 0.00 in
Snow Depth Not available.
UV 0 out of 12
Pollen 7.30 out of 12
Air Quality Not available.
Flu Activity Not available.
METAR KEUL 020855Z AUTO 10005KT 10SM CLR 11/03 A2997 RMK AO1 57003

More Conditions Fewer Conditions

10-Day Weather Forecast

Almanac

Astronomy

Sep. 02, 2014 Rise Set
Actual Time 7:15 AM MDT 8:22 PM MDT
Civil Twilight 6:46 AM MDT 8:51 PM MDT
Nautical Twilight 6:11 AM MDT 9:26 PM MDT
Astronomical Twilight 5:35 AM MDT 10:02 PM MDT
Moon 3:14 PM MDT 12:19 AM MDT
Length of Visible Light 14h 05m
Length of Day
13h 07m
Tomorrow will be 2m 48s shorter.
Waxing Crescent, 49% of the Moon is Illuminated
Today
Waxing Crescent
Sep 2
First Quarter
Sep 8
Full
Sep 15
Last Quarter
Sep 24
New

Today's Extremes

State Highs State Lows

Community

WunderPhotos

Upload Photos

1,749,587 photos uploaded!

WunderBlogs® & News

Nearby

Snow Depth

Station Depth Elevation
Fish Creek 0 in 7900 ft
Rock Springs 0 in 5550 ft
Blue Mountain Spring 0 in 5900 ft
Starr Ridge 0 in 5300 ft
Snow Mountain 0 in 6220 ft

Earthquake Activity

City Distance Mag. Time & Date
No recent earthquake activity has been reported nearby.
Minimum magnitude displayed is 2.5.

Coastal Water Temperatures

Place Temperature
No Stations Reporting

Nearby Weather Stations